KMGE

Dobbins Air Reserve Base Airport

Marietta, Georgia, USA
METAR KMGE 182122Z VRB04KT 10SM FEW015 BKN035CB BKN250 25/23 A2997 RMK AO2A CB 12SE MOV E PRESFR $
Observed Flight Rules
Aug-18 @ 21:22 UTC (31 minutes ago) Visual Flight Rules
Wind Visibility Clouds
Variable at 4 knots 10 miles
  • Few at 1,500' AGL
  • Broken at 3,500' AGL
  • Broken at 25,000' AGL
Temperatures Readings
Current 25°C / 77°F
Dewpoint 23°C / 73°F
Humidity 89%
Altimeter 29.97" Hg
Pressure 1015 hPa
Elevation 326
METAR KMGE 182122Z VRB04KT 10SM FEW015 BKN035CB BKN250 25/23 A2997 RMK AO2A CB 12SE MOV E PRESFR $
Observed Flight Rules
Aug-18 @ 21:22 UTC
(31 minutes ago)
VFR
Wind Visibility
Variable at 4 knots 10 miles
Clouds
  • Few at 1,500' AGL
  • Broken at 3,500' AGL
  • Broken at 25,000' AGL
Temperature Dewpoint
25°C / 77°F 23°C / 73°F
Humidity Altimeter Pressure
89% 29.97" Hg 1015 hPa